Terminal Aerodrome Forecast
Issued by NWS Austin/San Antonio, TX

Home | Current Version | Previous Version | Text Only | Print | Product List | Glossary On
Versions: 1 2 3 4 5 6 7 8 9 10 11 12 13 14 15 16 17 18 19 20
000
FTUS44 KEWX 202300
TAFDRT
TAF
KDRT 202325Z 2100/2124 14013G23KT P6SM FEW080 SCT250
     FM210200 10010KT P6SM SCT250
      TEMPO 2113/2115 BKN020
     FM211500 14015G23KT P6SM FEW060=

USA.gov is the U.S. government's official web portal to all federal, state and local government web resources and services.